Time;durP1;ratioP1;P1;durP2;ratioP2;P2;SDS_P1;SDS_P2;PMS_P1;PMS_P2;Temp;Humidity;BMP_temperature;BMP_pressure;BME280_temperature;BME280_humidity;BME280_pressure;Samples;Min_cycle;Max_cycle;Signal;HPM_P1;HPM_P2
2022/02/21 00:00:15;;;;;;;8.15;1.67;;;;;;;5.62;100.00;92260.69;2106800;28;20024;-85
2022/02/21 00:01:16;;;;;;;7.28;1.40;;;;;;;5.63;99.33;92259.53;2107331;28;20423;-85
2022/02/21 00:02:17;;;;;;;4.47;1.35;;;;;;;5.59;99.93;92225.13;2106664;28;20028;-84
2022/02/21 00:03:20;;;;;;;4.28;0.90;;;;;;;5.79;98.73;92270.22;2106694;28;20475;-85
2022/02/21 00:04:21;;;;;;;7.75;1.65;;;;;;;5.91;96.77;92229.13;2098584;28;20020;-85
2022/02/21 00:05:22;;;;;;;5.25;1.70;;;;;;;5.75;97.38;92240.38;2100423;28;20024;-85
2022/02/21 00:06:23;;;;;;;6.10;2.05;;;;;;;5.73;97.08;92269.97;2106670;28;20024;-84
2022/02/21 00:07:24;;;;;;;4.90;1.33;;;;;;;5.68;96.75;92227.25;2115269;28;20083;-85
2022/02/21 00:08:25;;;;;;;7.28;1.48;;;;;;;5.62;98.08;92245.53;2123599;27;20023;-85
2022/02/21 00:09:26;;;;;;;5.15;1.30;;;;;;;5.70;97.75;92238.94;2123524;27;20042;-86
2022/02/21 00:10:27;;;;;;;6.53;1.42;;;;;;;5.74;98.43;92222.97;2115175;27;20168;-86
2022/02/21 00:11:28;;;;;;;7.25;1.45;;;;;;;5.62;98.38;92219.03;2111365;28;20063;-86
2022/02/21 00:12:30;;;;;;;3.58;1.77;;;;;;;5.59;98.39;92217.19;2108173;28;20091;-86
2022/02/21 00:13:31;;;;;;;6.60;1.58;;;;;;;5.63;98.25;92220.53;2114921;28;20023;-86
2022/02/21 00:14:32;;;;;;;5.22;1.15;;;;;;;5.77;97.03;92208.91;2114875;27;20055;-86
2022/02/21 00:15:33;;;;;;;4.18;1.08;;;;;;;5.79;97.01;92225.94;2115056;28;20114;-84
2022/02/21 00:16:33;;;;;;;5.85;1.55;;;;;;;5.74;97.09;92205.16;2114919;28;20051;-85
2022/02/21 00:17:34;;;;;;;2.78;1.02;;;;;;;5.78;96.20;92205.09;2114929;28;20023;-85
2022/02/21 00:18:35;;;;;;;6.40;1.60;;;;;;;5.89;94.82;92213.63;2106521;28;20020;-86
2022/02/21 00:19:36;;;;;;;4.65;1.23;;;;;;;5.82;96.37;92197.81;2115044;27;20026;-85
2022/02/21 00:20:37;;;;;;;5.53;1.10;;;;;;;5.88;94.84;92188.22;2115063;27;20039;-86
2022/02/21 00:21:38;;;;;;;5.10;1.65;;;;;;;5.82;95.35;92195.91;2106489;28;20046;-85
2022/02/21 00:22:39;;;;;;;3.47;1.13;;;;;;;5.89;94.98;92195.06;2106305;28;20055;-86
2022/02/21 00:23:40;;;;;;;4.78;1.75;;;;;;;5.79;95.38;92206.59;2110027;28;20024;-86
2022/02/21 00:24:41;;;;;;;4.55;1.50;;;;;;;5.76;96.27;92199.47;2107838;27;20044;-87
2022/02/21 00:25:42;;;;;;;4.50;1.00;;;;;;;5.83;95.58;92217.88;2115037;27;20114;-85
2022/02/21 00:26:43;;;;;;;5.95;1.33;;;;;;;5.93;96.40;92185.16;2114980;28;20058;-86
2022/02/21 00:27:44;;;;;;;5.72;1.30;;;;;;;5.86;95.46;92187.91;2106498;28;20024;-86
2022/02/21 00:28:46;;;;;;;5.50;1.35;;;;;;;5.86;96.49;92187.91;2106414;28;20020;-86
2022/02/21 00:29:48;;;;;;;4.43;1.20;;;;;;;5.86;96.12;92166.69;2124970;27;20027;-84
2022/02/21 00:30:48;;;;;;;4.28;1.30;;;;;;;5.91;95.02;92166.22;2123038;27;20079;-85
2022/02/21 00:31:50;;;;;;;6.55;1.48;;;;;;;6.09;94.57;92176.50;2106054;28;20164;-85
2022/02/21 00:32:52;;;;;;;6.47;1.17;;;;;;;5.96;95.55;92157.06;2102607;28;20035;-85
2022/02/21 00:33:54;;;;;;;2.42;0.90;;;;;;;5.97;95.33;92188.50;2111730;28;20028;-86
2022/02/21 00:34:55;;;;;;;8.60;1.35;;;;;;;6.02;94.56;92163.38;2098196;28;20028;-86
2022/02/21 00:35:56;;;;;;;5.07;1.30;;;;;;;5.94;95.72;92165.44;2098080;28;20027;-85
2022/02/21 00:36:56;;;;;;;4.57;1.10;;;;;;;5.91;96.08;92160.91;2106339;28;20425;-84
2022/02/21 00:37:57;;;;;;;5.25;1.27;;;;;;;5.96;95.43;92165.00;2114739;28;20054;-85
2022/02/21 00:38:58;;;;;;;6.00;1.08;;;;;;;6.04;94.61;92175.06;2097825;28;20048;-86
2022/02/21 00:39:59;;;;;;;2.72;1.10;;;;;;;6.17;93.42;92155.88;2097954;28;20130;-85
2022/02/21 00:41:02;;;;;;;4.57;1.00;;;;;;;5.94;95.74;92164.69;2097983;28;20457;-85
2022/02/21 00:42:04;;;;;;;4.50;1.30;;;;;;;5.88;97.15;92153.00;2106385;28;20016;-86
2022/02/21 00:43:05;;;;;;;4.18;1.20;;;;;;;6.17;94.20;92174.44;2106516;27;20027;-85
2022/02/21 00:44:06;;;;;;;4.65;1.02;;;;;;;6.03;95.27;92159.56;2106201;28;20027;-84
2022/02/21 00:45:09;;;;;;;4.70;1.20;;;;;;;5.95;96.92;92108.56;2097951;28;20077;-85
2022/02/21 00:46:10;;;;;;;3.65;1.55;;;;;;;5.94;97.28;92160.13;2106781;28;20481;-86
2022/02/21 00:47:11;;;;;;;4.15;0.90;;;;;;;5.92;96.95;92154.47;2106014;28;20024;-85
2022/02/21 00:48:12;;;;;;;4.88;1.30;;;;;;;5.77;98.25;92155.88;2106103;28;20115;-87
2022/02/21 00:49:13;;;;;;;6.15;2.15;;;;;;;5.88;98.99;92150.38;2110291;28;20023;-85
2022/02/21 00:50:14;;;;;;;2.97;1.00;;;;;;;5.98;97.51;92146.78;2097803;28;20032;-84
2022/02/21 00:51:15;;;;;;;3.88;1.00;;;;;;;5.87;100.00;92154.91;2096986;28;20024;-85
2022/02/21 00:52:16;;;;;;;4.43;1.10;;;;;;;5.96;99.53;92141.13;2097492;28;20032;-86
2022/02/21 00:53:23;;;;;;;3.63;0.98;;;;;;;5.92;99.05;92143.84;2105717;28;20023;-85
2022/02/21 00:54:26;;;;;;;5.80;1.75;;;;;;;5.89;99.51;92138.63;2099674;28;20445;-86
2022/02/21 00:55:27;;;;;;;7.47;1.23;;;;;;;5.80;100.00;92142.56;2113721;27;20052;-84
2022/02/21 00:56:28;;;;;;;5.47;0.98;;;;;;;5.83;100.00;92125.06;2114645;28;20392;-85
2022/02/21 00:57:29;;;;;;;5.72;1.30;;;;;;;5.75;100.00;92152.88;2106098;28;20028;-86
2022/02/21 00:58:30;;;;;;;8.48;1.15;;;;;;;5.64;100.00;92117.88;2106011;28;20024;-84
2022/02/21 00:59:31;;;;;;;5.25;1.17;;;;;;;5.73;100.00;92147.25;2098364;28;20048;-85
2022/02/21 01:00:34;;;;;;;3.35;1.35;;;;;;;5.64;100.00;92120.53;2097925;28;20024;-86
2022/02/21 01:01:35;;;;;;;3.38;0.82;;;;;;;5.63;100.00;92119.06;2098345;28;20531;-84
2022/02/21 01:02:36;;;;;;;3.00;1.10;;;;;;;5.72;100.00;92117.34;2106172;28;20170;-85
2022/02/21 01:03:37;;;;;;;6.25;2.03;;;;;;;5.55;100.00;92110.47;2112773;28;20042;-85
2022/02/21 01:04:39;;;;;;;3.65;0.90;;;;;;;5.61;100.00;92108.84;2102406;28;20252;-86
2022/02/21 01:05:40;;;;;;;4.25;1.10;;;;;;;5.52;100.00;92119.97;2106495;28;20032;-85
2022/02/21 01:06:41;;;;;;;5.22;1.10;;;;;;;5.77;100.00;92134.66;2112995;28;20583;-84
2022/02/21 01:07:42;;;;;;;4.43;1.15;;;;;;;5.82;100.00;92097.81;2108841;28;20024;-85
2022/02/21 01:08:44;;;;;;;2.88;1.10;;;;;;;5.56;100.00;92088.84;2101165;28;20129;-86
2022/02/21 01:09:45;;;;;;;5.32;1.25;;;;;;;5.50;100.00;92143.50;2100540;28;20051;-84
2022/02/21 01:10:46;;;;;;;3.78;1.58;;;;;;;5.65;100.00;92132.63;2106894;27;20307;-86
2022/02/21 01:11:47;;;;;;;4.80;1.15;;;;;;;5.40;100.00;92093.34;2113974;28;20051;-86
2022/02/21 01:12:49;;;;;;;3.67;1.35;;;;;;;5.50;100.00;92090.50;2107589;28;20035;-86
2022/02/21 01:13:50;;;;;;;6.88;1.30;;;;;;;5.58;100.00;92095.69;2106192;28;20107;-86
2022/02/21 01:14:51;;;;;;;2.67;0.85;;;;;;;5.57;100.00;92092.25;2114395;28;20031;-86
2022/02/21 01:15:55;;;;;;;5.65;1.30;;;;;;;5.45;100.00;92093.63;2107705;28;20086;-86
2022/02/21 01:16:56;;;;;;;2.03;0.93;;;;;;;5.54;100.00;92093.84;2106145;28;20424;-84
2022/02/21 01:17:57;;;;;;;5.10;1.00;;;;;;;5.58;100.00;92055.91;2108979;27;20023;-85
2022/02/21 01:18:58;;;;;;;5.22;1.15;;;;;;;5.50;100.00;92079.16;2119648;27;20567;-84
2022/02/21 01:20:03;;;;;;;4.88;1.08;;;;;;;5.32;100.00;92068.91;2114137;28;20400;-85
2022/02/21 01:21:05;;;;;;;2.17;0.80;;;;;;;5.28;100.00;92057.63;2106848;28;20098;-86
2022/02/21 01:22:07;;;;;;;3.28;1.00;;;;;;;5.39;100.00;92071.41;2117013;27;20019;-84
2022/02/21 01:23:08;;;;;;;8.15;1.23;;;;;;;5.43;100.00;92087.97;2114307;27;20098;-85
2022/02/21 01:24:09;;;;;;;2.30;0.95;;;;;;;5.27;100.00;92072.03;2122395;27;20023;-84
2022/02/21 01:25:11;;;;;;;3.53;0.80;;;;;;;5.32;100.00;92068.16;2114637;28;20024;-86
2022/02/21 01:26:12;;;;;;;1.58;0.70;;;;;;;5.22;100.00;92059.22;2106159;28;20453;-84
2022/02/21 01:27:16;;;;;;;3.03;0.70;;;;;;;5.10;100.00;92073.09;2105896;28;20063;-86
2022/02/21 01:28:17;;;;;;;2.97;0.73;;;;;;;5.04;100.00;92048.97;2106408;28;20077;-84
2022/02/21 01:29:18;;;;;;;1.98;0.98;;;;;;;5.13;100.00;92064.31;2105809;28;20049;-85
2022/02/21 01:30:19;;;;;;;1.98;0.93;;;;;;;5.10;100.00;92054.56;2105924;28;20032;-84
2022/02/21 01:31:20;;;;;;;4.38;0.90;;;;;;;5.10;100.00;92062.50;2097445;28;20024;-85
2022/02/21 01:32:21;;;;;;;3.10;0.90;;;;;;;4.91;100.00;92058.66;2097313;28;20063;-85
2022/02/21 01:33:22;;;;;;;6.53;1.05;;;;;;;4.98;100.00;92043.41;2097490;28;20036;-84
2022/02/21 01:34:24;;;;;;;2.85;0.80;;;;;;;4.80;100.00;92041.06;2097726;28;20085;-85
2022/02/21 01:35:27;;;;;;;2.90;0.82;;;;;;;4.84;100.00;92050.88;2097516;28;20599;-85
2022/02/21 01:36:29;;;;;;;3.28;1.08;;;;;;;4.75;100.00;92044.19;2114508;28;20758;-85
2022/02/21 01:37:30;;;;;;;1.30;0.70;;;;;;;4.85;100.00;92031.16;2122618;27;20034;-85
2022/02/21 01:38:31;;;;;;;1.83;0.80;;;;;;;4.88;100.00;92036.41;2105719;28;20125;-85
2022/02/21 01:39:33;;;;;;;2.97;0.63;;;;;;;4.71;100.00;92037.47;2097533;28;20056;-86
2022/02/21 01:40:34;;;;;;;2.88;1.05;;;;;;;4.75;100.00;92033.59;2097697;28;20028;-85
2022/02/21 01:41:35;;;;;;;3.08;1.00;;;;;;;4.80;100.00;92046.38;2097247;28;20044;-86
2022/02/21 01:42:37;;;;;;;3.13;1.02;;;;;;;4.81;100.00;92044.47;2106945;28;20044;-85
2022/02/21 01:43:39;;;;;;;2.80;0.80;;;;;;;4.70;100.00;92038.63;2120910;27;20486;-85
2022/02/21 01:44:43;;;;;;;4.50;0.90;;;;;;;4.85;100.00;92057.66;2114248;28;20023;-86
2022/02/21 01:45:44;;;;;;;3.65;1.00;;;;;;;4.69;100.00;92043.16;2122288;27;20106;-85
2022/02/21 01:46:45;;;;;;;4.22;1.55;;;;;;;4.67;100.00;92020.91;2108460;28;20801;-85
2022/02/21 01:47:46;;;;;;;2.05;0.77;;;;;;;4.47;100.00;92018.94;2111309;28;20031;-86
2022/02/21 01:48:47;;;;;;;0.70;0.70;;;;;;;4.49;100.00;92021.94;2114232;28;20015;-85
2022/02/21 01:49:49;;;;;;;5.72;1.00;;;;;;;4.49;100.00;92007.97;2114183;28;20443;-86
2022/02/21 01:50:50;;;;;;;1.98;0.90;;;;;;;4.48;100.00;92011.78;2122754;27;20030;-86
2022/02/21 01:51:51;;;;;;;2.15;1.02;;;;;;;4.55;100.00;92025.63;2122539;27;20107;-87
2022/02/21 01:52:53;;;;;;;3.70;0.80;;;;;;;4.55;100.00;92012.38;2122593;27;20027;-85
2022/02/21 01:53:56;;;;;;;1.25;0.80;;;;;;;4.50;100.00;92020.78;2122680;27;20019;-86
2022/02/21 01:54:57;;;;;;;1.95;0.80;;;;;;;4.46;100.00;92004.22;2114249;28;20035;-85
2022/02/21 01:56:24;;;;;;;3.22;0.75;;;;;;;4.58;100.00;92005.53;2105976;28;20384;-85
2022/02/21 01:57:26;;;;;;;3.13;0.80;;;;;;;4.47;100.00;91997.78;2112818;27;20026;-85
2022/02/21 01:58:27;;;;;;;2.33;0.75;;;;;;;4.54;100.00;92005.59;2105836;28;20024;-85
2022/02/21 01:59:29;;;;;;;1.42;0.60;;;;;;;4.36;100.00;91986.63;2112948;28;20546;-85
2022/02/21 02:00:30;;;;;;;3.00;0.60;;;;;;;4.50;100.00;92001.53;2105927;28;20468;-85
2022/02/21 02:01:31;;;;;;;3.63;0.80;;;;;;;4.41;100.00;91988.81;2105686;28;20020;-85
2022/02/21 02:02:32;;;;;;;5.90;1.00;;;;;;;4.48;100.00;92001.94;2105290;28;20092;-85
2022/02/21 02:03:33;;;;;;;2.38;0.68;;;;;;;4.60;100.00;91986.59;2097381;28;20070;-84
2022/02/21 02:04:35;;;;;;;2.42;0.95;;;;;;;4.54;100.00;91997.66;2105429;28;20020;-85
2022/02/21 02:05:36;;;;;;;3.00;0.85;;;;;;;4.49;100.00;92003.44;2105596;28;20122;-85
2022/02/21 02:06:37;;;;;;;1.88;0.60;;;;;;;4.55;100.00;92001.06;2105702;28;20073;-85
2022/02/21 02:07:38;;;;;;;2.13;0.70;;;;;;;4.62;100.00;92000.94;2114045;28;20522;-86
2022/02/21 02:08:40;;;;;;;2.17;1.00;;;;;;;4.50;100.00;91980.34;2114065;28;20031;-84
2022/02/21 02:11:27;;;;;;;1.63;0.70;;;;;;;4.69;100.00;91986.81;2139380;27;20534;-84
2022/02/21 02:12:28;;;;;;;4.40;0.82;;;;;;;4.57;100.00;91998.03;2121315;28;20039;-84
2022/02/21 02:13:29;;;;;;;2.92;0.68;;;;;;;4.67;100.00;91987.25;2104521;28;20020;-83
2022/02/21 02:14:35;;;;;;;2.00;0.52;;;;;;;4.85;100.00;91983.53;2104836;28;20381;-84
2022/02/21 02:15:36;;;;;;;2.20;0.80;;;;;;;4.64;100.00;91977.44;2114594;27;20098;-83
2022/02/21 02:16:38;;;;;;;2.60;0.77;;;;;;;4.64;100.00;91982.00;2121404;27;20019;-82
2022/02/21 02:17:39;;;;;;;3.50;0.80;;;;;;;4.48;100.00;91993.25;2121132;27;20088;-84
2022/02/21 02:18:40;;;;;;;1.42;0.90;;;;;;;4.83;100.00;91952.16;2104723;28;20016;-84
2022/02/21 02:19:43;;;;;;;2.05;0.68;;;;;;;4.90;100.00;91959.22;2113255;28;20052;-84
2022/02/21 02:20:44;;;;;;;0.82;0.50;;;;;;;4.97;100.00;92001.44;2113609;27;20027;-83
2022/02/21 02:21:52;;;;;;;2.13;0.80;;;;;;;4.85;100.00;91952.50;2129878;27;20019;-82
2022/02/21 02:22:53;;;;;;;1.63;0.50;;;;;;;4.96;100.00;91962.88;2121301;28;20028;-84
2022/02/21 02:23:55;;;;;;;2.10;0.82;;;;;;;5.04;100.00;91948.34;2104352;28;20029;-83
2022/02/21 02:24:56;;;;;;;2.00;0.70;;;;;;;5.12;100.00;91946.31;2112030;27;20576;-82
2022/02/21 02:25:57;;;;;;;1.60;0.75;;;;;;;4.91;100.00;91952.75;2121473;28;20031;-82
2022/02/21 02:26:58;;;;;;;2.40;0.70;;;;;;;4.91;100.00;91945.56;2116054;28;20120;-82
2022/02/21 02:27:59;;;;;;;2.20;0.43;;;;;;;4.87;100.00;91952.81;2116105;27;20389;-82
2022/02/21 02:29:00;;;;;;;2.10;0.77;;;;;;;4.94;100.00;91968.56;2114010;28;20353;-83
2022/02/21 02:30:03;;;;;;;1.05;0.60;;;;;;;4.82;100.00;91926.81;2104313;28;20170;-83
2022/02/21 02:31:04;;;;;;;3.17;0.70;;;;;;;4.66;100.00;91919.59;2104973;28;20421;-83
2022/02/21 02:32:07;;;;;;;2.53;0.60;;;;;;;4.78;100.00;91932.22;2104476;28;20059;-83
2022/02/21 02:33:08;;;;;;;2.97;0.60;;;;;;;4.88;100.00;91908.59;2113537;27;20024;-83
2022/02/21 02:34:09;;;;;;;3.30;0.63;;;;;;;4.85;100.00;91941.91;2113027;28;20366;-83
2022/02/21 02:35:09;;;;;;;2.13;0.60;;;;;;;4.74;100.00;91918.31;2121350;27;20023;-81
2022/02/21 02:36:10;;;;;;;1.98;1.00;;;;;;;4.85;100.00;91931.31;2113309;28;20028;-82
2022/02/21 02:37:20;;;;;;;1.55;0.45;;;;;;;4.72;100.00;91923.25;2104417;28;20119;-83
2022/02/21 02:38:21;;;;;;;1.67;0.50;;;;;;;4.61;100.00;91925.34;2105656;28;20427;-82
2022/02/21 02:39:26;;;;;;;3.53;0.55;;;;;;;4.69;100.00;91913.47;2104361;28;20036;-83
2022/02/21 02:40:27;;;;;;;0.75;0.55;;;;;;;4.84;100.00;91950.25;2113055;28;20032;-82
2022/02/21 02:41:28;;;;;;;1.88;0.45;;;;;;;4.73;100.00;91934.56;2096150;28;20024;-83
2022/02/21 02:42:29;;;;;;;0.90;0.60;;;;;;;4.76;100.00;91929.22;2104474;28;20693;-83
2022/02/21 02:43:30;;;;;;;2.90;0.85;;;;;;;4.84;100.00;91926.44;2095961;28;20056;-83
2022/02/21 02:44:31;;;;;;;2.80;0.70;;;;;;;4.91;100.00;91937.63;2116352;27;20024;-83
2022/02/21 02:45:34;;;;;;;2.58;0.77;;;;;;;4.89;100.00;91910.81;2121206;28;20031;-83
2022/02/21 02:46:35;;;;;;;4.65;0.70;;;;;;;4.72;100.00;91898.66;2121381;27;20023;-84
2022/02/21 02:47:36;;;;;;;0.75;0.52;;;;;;;4.87;100.00;91925.59;2121116;28;20024;-84
2022/02/21 02:48:37;;;;;;;1.40;0.50;;;;;;;4.83;100.00;91920.41;2121005;27;20020;-83
2022/02/21 02:49:39;;;;;;;1.08;0.65;;;;;;;4.95;100.00;91924.31;2121326;27;20023;-82
2022/02/21 02:50:40;;;;;;;0.45;0.45;;;;;;;4.77;100.00;91877.75;2121203;27;20076;-84
2022/02/21 02:51:41;;;;;;;1.80;0.50;;;;;;;4.89;100.00;91896.84;2121110;28;20020;-84
2022/02/21 02:52:42;;;;;;;1.20;0.80;;;;;;;4.88;100.00;91887.41;2121235;27;20028;-83
2022/02/21 02:53:43;;;;;;;2.75;0.60;;;;;;;4.83;100.00;91912.47;2108700;28;20115;-84
2022/02/21 02:54:44;;;;;;;1.67;0.65;;;;;;;4.73;100.00;91894.88;2095986;28;20021;-84
2022/02/21 02:55:45;;;;;;;1.05;0.50;;;;;;;4.76;100.00;91900.09;2104275;28;20020;-84
2022/02/21 02:56:47;;;;;;;0.75;0.50;;;;;;;4.74;100.00;91891.84;2103758;28;20055;-83
2022/02/21 02:57:55;;;;;;;2.75;0.50;;;;;;;4.90;100.00;91906.25;2112887;28;20027;-84
2022/02/21 02:58:56;;;;;;;0.73;0.60;;;;;;;4.83;100.00;91874.63;2113420;28;20035;-83
2022/02/21 02:59:58;;;;;;;1.50;0.57;;;;;;;4.91;100.00;91897.91;2112613;28;20024;-82
2022/02/21 03:00:59;;;;;;;2.80;0.60;;;;;;;4.74;100.00;91877.81;2112595;28;20103;-83
2022/02/21 03:02:00;;;;;;;2.00;0.60;;;;;;;4.63;100.00;91890.53;2104018;28;20402;-85
2022/02/21 03:03:01;;;;;;;1.33;0.47;;;;;;;4.72;100.00;91909.25;2104200;28;20454;-82
2022/02/21 03:04:02;;;;;;;0.80;0.40;;;;;;;4.64;100.00;91894.66;2095913;28;20068;-84
2022/02/21 03:05:04;;;;;;;1.75;0.70;;;;;;;4.75;100.00;91868.75;2097588;28;20158;-83
2022/02/21 03:06:05;;;;;;;2.55;0.60;;;;;;;4.84;100.00;91902.59;2095822;28;20036;-83
2022/02/21 03:07:06;;;;;;;1.20;0.50;;;;;;;4.89;100.00;91894.19;2104130;28;20127;-83
2022/02/21 03:08:07;;;;;;;0.73;0.50;;;;;;;4.91;100.00;91876.72;2112457;28;20211;-83
2022/02/21 03:09:08;;;;;;;0.75;0.60;;;;;;;4.92;100.00;91894.13;2112607;28;20047;-84
2022/02/21 03:10:09;;;;;;;3.60;0.60;;;;;;;4.93;100.00;91865.72;2104314;28;20162;-83
2022/02/21 03:11:10;;;;;;;0.80;0.45;;;;;;;4.82;100.00;91862.56;2087209;28;20115;-84
2022/02/21 03:12:11;;;;;;;1.95;0.75;;;;;;;4.75;100.00;91858.16;2095521;28;20051;-84
2022/02/21 03:13:12;;;;;;;0.63;0.38;;;;;;;4.78;100.00;91857.31;2095568;28;20075;-83
2022/02/21 03:14:13;;;;;;;1.33;0.40;;;;;;;4.64;100.00;91861.00;2088276;28;20021;-83
2022/02/21 03:15:14;;;;;;;1.10;0.40;;;;;;;4.81;100.00;91851.22;2095584;28;20028;-83
2022/02/21 03:16:15;;;;;;;1.17;0.63;;;;;;;4.82;100.00;91896.97;2101125;28;20107;-83
2022/02/21 03:17:16;;;;;;;0.65;0.50;;;;;;;4.76;100.00;91859.66;2095783;28;20363;-84
2022/02/21 03:18:22;;;;;;;0.90;0.38;;;;;;;4.96;100.00;91860.38;2103964;28;20709;-84
2022/02/21 03:19:26;;;;;;;4.82;0.85;;;;;;;4.78;100.00;91868.69;2102817;28;20032;-84
2022/02/21 03:20:27;;;;;;;0.43;0.30;;;;;;;4.77;100.00;91846.00;2104546;28;20507;-83
2022/02/21 03:21:28;;;;;;;1.25;0.47;;;;;;;4.89;100.00;91878.31;2104092;28;20095;-84
2022/02/21 03:22:29;;;;;;;0.45;0.45;;;;;;;4.82;100.00;91868.59;2092039;28;20032;-83
2022/02/21 03:23:30;;;;;;;1.88;0.52;;;;;;;4.77;100.00;91859.22;2090035;28;20853;-83
2022/02/21 03:24:31;;;;;;;1.38;0.57;;;;;;;4.86;100.00;91842.78;2090141;28;20029;-84
2022/02/21 03:25:32;;;;;;;0.95;0.40;;;;;;;4.97;100.00;91858.47;2090268;28;20262;-83
2022/02/21 03:26:33;;;;;;;1.30;0.40;;;;;;;4.89;100.00;91841.22;2098379;28;20032;-84
2022/02/21 03:27:40;;;;;;;0.93;0.60;;;;;;;4.83;100.00;91871.97;2106844;28;20371;-84
2022/02/21 03:28:41;;;;;;;2.10;0.40;;;;;;;4.77;100.00;91843.34;2098209;28;20024;-83
2022/02/21 03:29:42;;;;;;;2.80;0.70;;;;;;;4.96;100.00;91841.84;2098457;28;20029;-84
2022/02/21 03:30:43;;;;;;;0.47;0.30;;;;;;;4.87;100.00;91817.06;2098427;28;20020;-83
2022/02/21 03:31:44;;;;;;;3.05;0.52;;;;;;;4.97;100.00;91832.72;2091070;28;20098;-84
2022/02/21 03:32:45;;;;;;;1.35;0.40;;;;;;;4.78;100.00;91828.97;2090275;28;20025;-82
2022/02/21 03:33:46;;;;;;;1.65;0.50;;;;;;;4.86;100.00;91834.09;2089908;28;20056;-82
2022/02/21 03:34:47;;;;;;;1.65;0.55;;;;;;;4.67;100.00;91828.44;2090321;28;20025;-83
2022/02/21 03:35:49;;;;;;;1.17;0.63;;;;;;;4.77;100.00;91816.13;2089926;28;20509;-83
2022/02/21 03:36:50;;;;;;;1.05;0.30;;;;;;;4.89;100.00;91847.28;2098544;28;20050;-84
2022/02/21 03:37:50;;;;;;;1.63;0.50;;;;;;;4.85;100.00;91843.94;2098397;28;20598;-83
2022/02/21 03:38:52;;;;;;;0.30;0.30;;;;;;;4.82;100.00;91828.88;2098428;28;20028;-84
2022/02/21 03:39:53;;;;;;;1.30;0.40;;;;;;;4.89;100.00;91862.41;2106757;28;20020;-83
2022/02/21 03:40:54;;;;;;;2.40;0.57;;;;;;;4.92;100.00;91845.72;2098373;28;20020;-83
2022/02/21 03:41:56;;;;;;;1.30;0.93;;;;;;;5.03;100.00;91814.44;2098205;28;20016;-83
2022/02/21 03:42:57;;;;;;;1.15;0.60;;;;;;;4.88;100.00;91829.91;2098545;28;20024;-84
2022/02/21 03:43:58;;;;;;;0.82;0.40;;;;;;;4.89;100.00;91817.41;2098309;28;20222;-83
2022/02/21 03:45:00;;;;;;;0.98;0.70;;;;;;;4.92;100.00;91838.50;2106620;28;20654;-84
2022/02/21 03:46:01;;;;;;;1.17;0.40;;;;;;;4.85;100.00;91816.75;2098372;28;20033;-84
2022/02/21 03:47:02;;;;;;;0.52;0.30;;;;;;;4.87;100.00;91819.69;2089888;28;20029;-82
2022/02/21 03:48:03;;;;;;;0.22;0.20;;;;;;;4.82;100.00;91810.34;2090028;28;20112;-83
2022/02/21 03:49:05;;;;;;;2.50;0.50;;;;;;;4.85;100.00;91791.00;2090120;28;20028;-83
2022/02/21 03:50:06;;;;;;;0.55;0.32;;;;;;;4.91;100.00;91831.72;2098405;28;20070;-83
2022/02/21 03:51:07;;;;;;;1.10;0.40;;;;;;;4.94;100.00;91833.53;2106746;27;20754;-83
2022/02/21 03:52:08;;;;;;;2.33;0.47;;;;;;;4.85;100.00;91812.19;2106608;28;20028;-83
2022/02/21 03:53:09;;;;;;;2.00;0.40;;;;;;;4.75;100.00;91807.88;2106386;28;20020;-83
2022/02/21 03:54:10;;;;;;;2.13;1.00;;;;;;;5.00;100.00;91794.84;2098137;28;20020;-83
2022/02/21 03:55:12;;;;;;;0.80;0.40;;;;;;;4.93;100.00;91818.06;2098087;28;20020;-82
2022/02/21 03:56:13;;;;;;;1.25;0.35;;;;;;;4.95;100.00;91802.50;2098401;28;20020;-82
2022/02/21 03:57:14;;;;;;;1.38;0.40;;;;;;;4.86;100.00;91807.63;2111698;28;20500;-83
2022/02/21 03:58:15;;;;;;;0.60;0.47;;;;;;;4.90;100.00;91801.09;2098221;28;20147;-82
2022/02/21 03:59:22;;;;;;;1.27;0.40;;;;;;;4.89;100.00;91793.56;2089677;28;20116;-83
2022/02/21 04:00:23;;;;;;;1.23;0.52;;;;;;;4.80;100.00;91802.09;2091503;28;20551;-82
2022/02/21 04:01:24;;;;;;;0.75;0.40;;;;;;;4.76;100.00;91807.44;2098321;28;20484;-82
2022/02/21 04:02:25;;;;;;;0.38;0.35;;;;;;;4.71;100.00;91792.06;2114968;28;20057;-83
2022/02/21 04:03:26;;;;;;;1.73;0.50;;;;;;;4.93;100.00;91833.97;2098164;28;20112;-83
2022/02/21 04:04:27;;;;;;;0.38;0.38;;;;;;;4.95;100.00;91791.91;2097958;28;20020;-83
2022/02/21 04:05:28;;;;;;;1.95;0.47;;;;;;;4.84;100.00;91796.72;2098022;28;20024;-83
2022/02/21 04:06:29;;;;;;;2.05;0.47;;;;;;;4.97;100.00;91800.97;2098089;28;20016;-83
2022/02/21 04:07:30;;;;;;;1.45;0.50;;;;;;;4.94;100.00;91809.72;2098019;28;20112;-84
2022/02/21 04:08:31;;;;;;;3.13;0.60;;;;;;;5.00;100.00;91816.03;2089857;28;20033;-83
2022/02/21 04:09:31;;;;;;;0.45;0.45;;;;;;;5.00;100.00;91802.78;2089866;28;20040;-86
2022/02/21 04:10:33;;;;;;;1.70;0.40;;;;;;;5.11;100.00;91801.78;2089606;28;20086;-84
2022/02/21 04:11:34;;;;;;;1.38;0.47;;;;;;;4.92;100.00;91787.47;2098080;28;20581;-84
2022/02/21 04:12:35;;;;;;;0.30;0.30;;;;;;;4.90;100.00;91795.81;2106615;28;20024;-85
2022/02/21 04:13:36;;;;;;;0.90;0.40;;;;;;;4.69;100.00;91791.72;2114894;28;20015;-84
2022/02/21 04:14:37;;;;;;;1.95;0.57;;;;;;;4.59;100.00;91784.75;2106343;28;20023;-84
2022/02/21 04:15:38;;;;;;;1.33;0.50;;;;;;;4.54;100.00;91783.34;2097783;28;20020;-84
2022/02/21 04:16:39;;;;;;;3.10;0.63;;;;;;;4.55;100.00;91803.34;2089956;28;20331;-84
2022/02/21 04:17:45;;;;;;;1.23;0.50;;;;;;;4.58;100.00;91761.34;2098014;28;20035;-84
2022/02/21 04:18:46;;;;;;;1.95;0.70;;;;;;;4.63;100.00;91803.22;2107175;28;20326;-83
2022/02/21 04:19:47;;;;;;;1.10;0.32;;;;;;;4.72;100.00;91825.31;2106198;28;20118;-84
2022/02/21 04:20:48;;;;;;;2.15;0.70;;;;;;;4.60;100.00;91817.25;2097901;28;20028;-84
2022/02/21 04:21:49;;;;;;;0.93;0.50;;;;;;;4.64;100.00;91800.13;2089688;28;20105;-84
2022/02/21 04:22:50;;;;;;;0.90;0.55;;;;;;;4.52;100.00;91821.94;2089858;28;20405;-84
2022/02/21 04:23:51;;;;;;;0.40;0.40;;;;;;;4.61;100.00;91842.56;2089613;28;20445;-84
2022/02/21 04:24:52;;;;;;;1.83;0.60;;;;;;;4.53;100.00;91834.78;2089701;28;20020;-84
2022/02/21 04:25:53;;;;;;;2.28;0.50;;;;;;;4.72;100.00;91869.56;2087690;28;20025;-84
2022/02/21 04:26:54;;;;;;;1.35;0.40;;;;;;;4.67;100.00;91905.19;2097812;28;20024;-84
2022/02/21 04:27:55;;;;;;;0.52;0.30;;;;;;;4.67;100.00;91907.84;2089820;28;20044;-84
2022/02/21 04:28:57;;;;;;;2.45;0.32;;;;;;;4.72;100.00;91941.03;2090146;28;20040;-84
2022/02/21 04:29:57;;;;;;;0.60;0.40;;;;;;;4.15;100.00;91944.69;2089893;28;20029;-85
2022/02/21 04:30:58;;;;;;;2.38;0.30;;;;;;;3.37;100.00;91975.66;2089483;28;20045;-83
2022/02/21 04:31:59;;;;;;;1.08;0.20;;;;;;;2.72;100.00;91983.59;2089743;28;20373;-84
2022/02/21 04:33:00;;;;;;;0.20;0.20;;;;;;;2.09;100.00;91991.00;2089809;28;20021;-84
2022/02/21 04:34:01;;;;;;;0.15;0.15;;;;;;;1.73;100.00;91986.00;2097405;28;20024;-84
2022/02/21 04:35:03;;;;;;;0.35;0.10;;;;;;;1.27;100.00;91989.66;2089317;28;20111;-83
2022/02/21 04:36:04;;;;;;;0.55;0.20;;;;;;;1.03;100.00;92014.22;2098334;28;20107;-83
2022/02/21 04:37:05;;;;;;;0.20;0.20;;;;;;;0.82;100.00;92007.16;2106472;28;20020;-84
2022/02/21 04:38:06;;;;;;;0.20;0.20;;;;;;;0.92;100.00;92019.50;2114740;28;20118;-83
2022/02/21 04:39:07;;;;;;;0.20;0.20;;;;;;;0.76;100.00;92030.47;2097786;28;20033;-83
2022/02/21 04:40:11;;;;;;;0.25;0.20;;;;;;;0.64;100.00;92044.78;2089525;28;20036;-83
2022/02/21 04:41:12;;;;;;;0.22;0.17;;;;;;;0.73;100.00;92034.59;2097664;28;20020;-84
2022/02/21 04:42:13;;;;;;;0.20;0.20;;;;;;;0.38;100.00;92051.19;2089326;28;20029;-84
2022/02/21 04:43:14;;;;;;;0.20;0.20;;;;;;;0.31;100.00;92030.19;2097902;28;20160;-83
2022/02/21 04:44:15;;;;;;;0.30;0.20;;;;;;;0.20;100.00;92029.44;2089605;28;20021;-83
2022/02/21 04:45:16;;;;;;;0.20;0.20;;;;;;;0.15;100.00;92041.09;2103118;28;20020;-83
2022/02/21 04:46:17;;;;;;;0.65;0.30;;;;;;;0.05;100.00;92046.34;2097680;28;20487;-83
2022/02/21 04:47:18;;;;;;;0.45;0.20;;;;;;;-0.05;100.00;92045.19;2103519;28;20031;-83
2022/02/21 04:48:19;;;;;;;0.32;0.20;;;;;;;-0.02;100.00;92054.97;2104400;28;20027;-83
2022/02/21 04:49:20;;;;;;;0.85;0.30;;;;;;;-0.05;100.00;92064.34;2097728;28;20060;-83
2022/02/21 04:50:23;;;;;;;0.52;0.32;;;;;;;-0.15;100.00;92061.72;2106111;28;20437;-82
2022/02/21 04:51:25;;;;;;;0.43;0.20;;;;;;;-0.20;100.00;92065.47;2098247;28;20012;-83